sensor_id;sensor_type;location;lat;lon;timestamp;temperature;humidity
21744;DHT22;11034;48.556;9.342;2023-11-18T00:00:33;4.30;99.90
21744;DHT22;11034;48.556;9.342;2023-11-18T00:03:01;4.30;99.90
21744;DHT22;11034;48.556;9.342;2023-11-18T00:05:29;4.30;99.90
21744;DHT22;11034;48.556;9.342;2023-11-18T00:07:57;4.30;99.90
21744;DHT22;11034;48.556;9.342;2023-11-18T00:10:27;4.30;99.90
21744;DHT22;11034;48.556;9.342;2023-11-18T00:12:56;4.30;99.90
21744;DHT22;11034;48.556;9.342;2023-11-18T00:15:24;4.30;99.90
21744;DHT22;11034;48.556;9.342;2023-11-18T00:17:52;4.30;99.90
21744;DHT22;11034;48.556;9.342;2023-11-18T00:20:20;4.40;99.90
21744;DHT22;11034;48.556;9.342;2023-11-18T00:22:51;4.40;99.90
21744;DHT22;11034;48.556;9.342;2023-11-18T00:25:20;4.30;99.90
21744;DHT22;11034;48.556;9.342;2023-11-18T00:27:49;4.40;99.90
21744;DHT22;11034;48.556;9.342;2023-11-18T00:30:17;4.30;99.90
21744;DHT22;11034;48.556;9.342;2023-11-18T00:32:45;4.30;99.90
21744;DHT22;11034;48.556;9.342;2023-11-18T00:35:15;4.30;99.90
21744;DHT22;11034;48.556;9.342;2023-11-18T00:37:43;4.30;99.90
21744;DHT22;11034;48.556;9.342;2023-11-18T00:40:11;4.30;99.90
21744;DHT22;11034;48.556;9.342;2023-11-18T00:42:39;4.30;99.90
21744;DHT22;11034;48.556;9.342;2023-11-18T00:45:09;4.30;99.90
21744;DHT22;11034;48.556;9.342;2023-11-18T00:47:39;4.30;99.90
21744;DHT22;11034;48.556;9.342;2023-11-18T00:50:08;4.30;99.90
21744;DHT22;11034;48.556;9.342;2023-11-18T00:52:38;4.40;99.90
21744;DHT22;11034;48.556;9.342;2023-11-18T00:55:08;4.40;99.90
21744;DHT22;11034;48.556;9.342;2023-11-18T00:57:38;4.30;99.90
21744;DHT22;11034;48.556;9.342;2023-11-18T01:00:11;4.30;99.90
21744;DHT22;11034;48.556;9.342;2023-11-18T01:02:41;4.30;99.90
21744;DHT22;11034;48.556;9.342;2023-11-18T01:05:09;4.30;99.90
21744;DHT22;11034;48.556;9.342;2023-11-18T01:07:38;4.20;99.90
21744;DHT22;11034;48.556;9.342;2023-11-18T01:10:08;4.20;99.90
21744;DHT22;11034;48.556;9.342;2023-11-18T01:12:37;4.20;99.90
21744;DHT22;11034;48.556;9.342;2023-11-18T01:15:06;4.20;99.90
21744;DHT22;11034;48.556;9.342;2023-11-18T01:17:36;4.30;99.90
21744;DHT22;11034;48.556;9.342;2023-11-18T01:20:05;4.30;99.90
21744;DHT22;11034;48.556;9.342;2023-11-18T01:22:37;4.30;99.90
21744;DHT22;11034;48.556;9.342;2023-11-18T01:25:07;4.30;99.90
21744;DHT22;11034;48.556;9.342;2023-11-18T01:27:36;4.30;99.90
21744;DHT22;11034;48.556;9.342;2023-11-18T01:30:05;4.30;99.90
21744;DHT22;11034;48.556;9.342;2023-11-18T01:32:33;4.40;99.90
21744;DHT22;11034;48.556;9.342;2023-11-18T01:35:03;4.40;99.90
21744;DHT22;11034;48.556;9.342;2023-11-18T01:37:32;4.30;99.90
21744;DHT22;11034;48.556;9.342;2023-11-18T01:40:01;4.30;99.90
21744;DHT22;11034;48.556;9.342;2023-11-18T01:42:32;4.40;99.90
21744;DHT22;11034;48.556;9.342;2023-11-18T01:45:00;4.30;99.90
21744;DHT22;11034;48.556;9.342;2023-11-18T01:47:31;4.30;99.90
21744;DHT22;11034;48.556;9.342;2023-11-18T01:50:02;4.40;99.90
21744;DHT22;11034;48.556;9.342;2023-11-18T01:52:33;4.40;99.90
21744;DHT22;11034;48.556;9.342;2023-11-18T01:55:02;4.40;99.90
21744;DHT22;11034;48.556;9.342;2023-11-18T01:57:33;4.40;99.90
21744;DHT22;11034;48.556;9.342;2023-11-18T02:00:02;4.30;99.90
21744;DHT22;11034;48.556;9.342;2023-11-18T02:02:33;4.30;99.90
21744;DHT22;11034;48.556;9.342;2023-11-18T02:05:06;4.30;99.90
21744;DHT22;11034;48.556;9.342;2023-11-18T02:07:35;4.30;99.90
21744;DHT22;11034;48.556;9.342;2023-11-18T02:10:05;4.30;99.90
21744;DHT22;11034;48.556;9.342;2023-11-18T02:12:43;4.30;99.90
21744;DHT22;11034;48.556;9.342;2023-11-18T02:15:13;4.30;99.90
21744;DHT22;11034;48.556;9.342;2023-11-18T02:17:42;4.40;99.90
21744;DHT22;11034;48.556;9.342;2023-11-18T02:20:13;4.40;99.90
21744;DHT22;11034;48.556;9.342;2023-11-18T02:22:44;4.40;99.90
21744;DHT22;11034;48.556;9.342;2023-11-18T02:25:16;4.40;99.90
21744;DHT22;11034;48.556;9.342;2023-11-18T02:27:46;4.40;99.90
21744;DHT22;11034;48.556;9.342;2023-11-18T02:30:15;4.40;99.90
21744;DHT22;11034;48.556;9.342;2023-11-18T02:32:48;4.50;99.90
21744;DHT22;11034;48.556;9.342;2023-11-18T02:35:23;4.50;99.90
21744;DHT22;11034;48.556;9.342;2023-11-18T02:37:54;4.40;99.90
21744;DHT22;11034;48.556;9.342;2023-11-18T02:40:27;4.40;99.90
21744;DHT22;11034;48.556;9.342;2023-11-18T02:43:00;4.40;99.90
21744;DHT22;11034;48.556;9.342;2023-11-18T02:45:32;4.40;99.90
21744;DHT22;11034;48.556;9.342;2023-11-18T02:48:01;4.40;99.90
21744;DHT22;11034;48.556;9.342;2023-11-18T02:50:29;4.40;99.90
21744;DHT22;11034;48.556;9.342;2023-11-18T02:52:58;4.40;99.90
21744;DHT22;11034;48.556;9.342;2023-11-18T02:55:26;4.40;99.90
21744;DHT22;11034;48.556;9.342;2023-11-18T02:57:54;4.40;99.90
21744;DHT22;11034;48.556;9.342;2023-11-18T03:00:25;4.40;99.90
21744;DHT22;11034;48.556;9.342;2023-11-18T03:02:55;4.40;99.90
21744;DHT22;11034;48.556;9.342;2023-11-18T03:05:23;4.30;99.90
21744;DHT22;11034;48.556;9.342;2023-11-18T03:07:53;4.30;99.90
21744;DHT22;11034;48.556;9.342;2023-11-18T03:10:24;4.30;99.90
21744;DHT22;11034;48.556;9.342;2023-11-18T03:12:53;4.30;99.90
21744;DHT22;11034;48.556;9.342;2023-11-18T03:15:22;4.30;99.90
21744;DHT22;11034;48.556;9.342;2023-11-18T03:17:53;4.30;99.90
21744;DHT22;11034;48.556;9.342;2023-11-18T03:20:22;4.20;99.90
21744;DHT22;11034;48.556;9.342;2023-11-18T03:22:51;4.10;99.90
21744;DHT22;11034;48.556;9.342;2023-11-18T03:25:19;4.20;99.90
21744;DHT22;11034;48.556;9.342;2023-11-18T03:27:49;4.20;99.90
21744;DHT22;11034;48.556;9.342;2023-11-18T03:30:17;4.20;99.90
21744;DHT22;11034;48.556;9.342;2023-11-18T03:32:45;4.20;99.90
21744;DHT22;11034;48.556;9.342;2023-11-18T03:35:14;4.20;99.90
21744;DHT22;11034;48.556;9.342;2023-11-18T03:37:42;4.20;99.90
21744;DHT22;11034;48.556;9.342;2023-11-18T03:40:12;4.30;99.90
21744;DHT22;11034;48.556;9.342;2023-11-18T03:42:42;4.20;99.90
21744;DHT22;11034;48.556;9.342;2023-11-18T03:45:13;4.20;99.90
21744;DHT22;11034;48.556;9.342;2023-11-18T03:47:42;4.20;99.90
21744;DHT22;11034;48.556;9.342;2023-11-18T03:50:10;4.00;99.90
21744;DHT22;11034;48.556;9.342;2023-11-18T03:52:41;4.10;99.90
21744;DHT22;11034;48.556;9.342;2023-11-18T03:55:10;4.00;99.90
21744;DHT22;11034;48.556;9.342;2023-11-18T03:57:39;3.90;99.90
21744;DHT22;11034;48.556;9.342;2023-11-18T04:00:07;3.80;99.90
21744;DHT22;11034;48.556;9.342;2023-11-18T04:02:38;3.80;99.90
21744;DHT22;11034;48.556;9.342;2023-11-18T04:05:07;3.80;99.90
21744;DHT22;11034;48.556;9.342;2023-11-18T04:07:37;3.90;99.90
21744;DHT22;11034;48.556;9.342;2023-11-18T04:10:07;3.80;99.90
21744;DHT22;11034;48.556;9.342;2023-11-18T04:12:37;3.80;99.90
21744;DHT22;11034;48.556;9.342;2023-11-18T04:15:06;3.70;99.90
21744;DHT22;11034;48.556;9.342;2023-11-18T04:17:34;3.70;99.90
21744;DHT22;11034;48.556;9.342;2023-11-18T04:20:03;3.60;99.90
21744;DHT22;11034;48.556;9.342;2023-11-18T04:22:38;3.70;99.90
21744;DHT22;11034;48.556;9.342;2023-11-18T04:25:09;3.70;99.90
21744;DHT22;11034;48.556;9.342;2023-11-18T04:27:38;3.70;99.90
21744;DHT22;11034;48.556;9.342;2023-11-18T04:30:10;3.70;99.90
21744;DHT22;11034;48.556;9.342;2023-11-18T04:32:39;3.70;99.90
21744;DHT22;11034;48.556;9.342;2023-11-18T04:35:09;3.80;99.90
21744;DHT22;11034;48.556;9.342;2023-11-18T04:37:39;3.90;99.90
21744;DHT22;11034;48.556;9.342;2023-11-18T04:40:12;3.90;99.90
21744;DHT22;11034;48.556;9.342;2023-11-18T04:42:40;3.90;99.90
21744;DHT22;11034;48.556;9.342;2023-11-18T04:45:09;4.00;99.90
21744;DHT22;11034;48.556;9.342;2023-11-18T04:47:37;4.10;99.90
21744;DHT22;11034;48.556;9.342;2023-11-18T04:50:07;4.10;99.90
21744;DHT22;11034;48.556;9.342;2023-11-18T04:52:36;4.20;99.90
21744;DHT22;11034;48.556;9.342;2023-11-18T04:55:05;4.20;99.90
21744;DHT22;11034;48.556;9.342;2023-11-18T04:57:35;4.30;99.90
21744;DHT22;11034;48.556;9.342;2023-11-18T05:00:07;4.20;99.90
21744;DHT22;11034;48.556;9.342;2023-11-18T05:02:39;4.30;99.90
21744;DHT22;11034;48.556;9.342;2023-11-18T05:05:08;4.30;99.90
21744;DHT22;11034;48.556;9.342;2023-11-18T05:07:36;4.40;99.90
21744;DHT22;11034;48.556;9.342;2023-11-18T05:10:06;4.40;99.90
21744;DHT22;11034;48.556;9.342;2023-11-18T05:12:37;4.40;99.90
21744;DHT22;11034;48.556;9.342;2023-11-18T05:15:06;4.30;99.90
21744;DHT22;11034;48.556;9.342;2023-11-18T05:17:35;4.40;99.90
21744;DHT22;11034;48.556;9.342;2023-11-18T05:20:05;4.40;99.90
21744;DHT22;11034;48.556;9.342;2023-11-18T05:22:35;4.40;99.90
21744;DHT22;11034;48.556;9.342;2023-11-18T05:25:04;4.40;99.90
21744;DHT22;11034;48.556;9.342;2023-11-18T05:27:33;4.50;99.90
21744;DHT22;11034;48.556;9.342;2023-11-18T05:30:03;4.50;99.90
21744;DHT22;11034;48.556;9.342;2023-11-18T05:32:32;4.60;99.90
21744;DHT22;11034;48.556;9.342;2023-11-18T05:35:00;4.60;99.90
21744;DHT22;11034;48.556;9.342;2023-11-18T05:37:31;4.60;99.90
21744;DHT22;11034;48.556;9.342;2023-11-18T05:40:03;4.60;99.90
21744;DHT22;11034;48.556;9.342;2023-11-18T05:42:34;4.50;99.90
21744;DHT22;11034;48.556;9.342;2023-11-18T05:45:08;4.60;99.90
21744;DHT22;11034;48.556;9.342;2023-11-18T05:47:44;4.60;99.90
21744;DHT22;11034;48.556;9.342;2023-11-18T05:50:13;4.60;99.90
21744;DHT22;11034;48.556;9.342;2023-11-18T05:52:42;4.60;99.90
21744;DHT22;11034;48.556;9.342;2023-11-18T05:55:10;4.60;99.90
21744;DHT22;11034;48.556;9.342;2023-11-18T05:57:38;4.60;99.90
21744;DHT22;11034;48.556;9.342;2023-11-18T06:00:09;4.60;99.90
21744;DHT22;11034;48.556;9.342;2023-11-18T06:02:39;4.60;99.90
21744;DHT22;11034;48.556;9.342;2023-11-18T06:05:08;4.60;99.90
21744;DHT22;11034;48.556;9.342;2023-11-18T06:07:36;4.60;99.90
21744;DHT22;11034;48.556;9.342;2023-11-18T06:10:07;4.50;99.90
21744;DHT22;11034;48.556;9.342;2023-11-18T06:12:36;4.50;99.90
21744;DHT22;11034;48.556;9.342;2023-11-18T06:15:08;4.40;99.90
21744;DHT22;11034;48.556;9.342;2023-11-18T06:17:43;4.40;99.90
21744;DHT22;11034;48.556;9.342;2023-11-18T06:20:13;4.40;99.90
21744;DHT22;11034;48.556;9.342;2023-11-18T06:22:44;4.30;99.90
21744;DHT22;11034;48.556;9.342;2023-11-18T06:25:12;4.20;99.90
21744;DHT22;11034;48.556;9.342;2023-11-18T06:27:43;4.20;99.90
21744;DHT22;11034;48.556;9.342;2023-11-18T06:30:16;4.20;99.90
21744;DHT22;11034;48.556;9.342;2023-11-18T06:32:44;4.20;99.90
21744;DHT22;11034;48.556;9.342;2023-11-18T06:35:14;4.20;99.90
21744;DHT22;11034;48.556;9.342;2023-11-18T06:37:42;4.20;99.90
21744;DHT22;11034;48.556;9.342;2023-11-18T06:40:12;4.20;99.90
21744;DHT22;11034;48.556;9.342;2023-11-18T06:42:46;4.20;99.90
21744;DHT22;11034;48.556;9.342;2023-11-18T06:45:15;4.30;99.90
21744;DHT22;11034;48.556;9.342;2023-11-18T06:47:44;4.40;99.90
21744;DHT22;11034;48.556;9.342;2023-11-18T06:50:12;4.40;99.90
21744;DHT22;11034;48.556;9.342;2023-11-18T06:52:43;4.50;99.90
21744;DHT22;11034;48.556;9.342;2023-11-18T06:55:14;4.50;99.90
21744;DHT22;11034;48.556;9.342;2023-11-18T06:57:43;4.40;99.90
21744;DHT22;11034;48.556;9.342;2023-11-18T07:00:12;4.40;99.90
21744;DHT22;11034;48.556;9.342;2023-11-18T07:02:42;4.50;99.90
21744;DHT22;11034;48.556;9.342;2023-11-18T07:05:18;4.40;99.90
21744;DHT22;11034;48.556;9.342;2023-11-18T07:07:47;4.30;99.90
21744;DHT22;11034;48.556;9.342;2023-11-18T07:10:15;4.30;99.90
21744;DHT22;11034;48.556;9.342;2023-11-18T07:12:47;4.30;99.90
21744;DHT22;11034;48.556;9.342;2023-11-18T07:15:15;4.30;99.90
21744;DHT22;11034;48.556;9.342;2023-11-18T07:17:45;4.30;99.90
21744;DHT22;11034;48.556;9.342;2023-11-18T07:21:13;4.30;99.90
21744;DHT22;11034;48.556;9.342;2023-11-18T07:58:39;5.40;99.90
21744;DHT22;11034;48.556;9.342;2023-11-18T08:01:12;5.40;99.90
21744;DHT22;11034;48.556;9.342;2023-11-18T08:18:43;5.80;99.90
21744;DHT22;11034;48.556;9.342;2023-11-18T08:21:13;5.80;99.90
21744;DHT22;11034;48.556;9.342;2023-11-18T08:23:41;5.90;99.90
21744;DHT22;11034;48.556;9.342;2023-11-18T08:26:11;6.00;99.90
21744;DHT22;11034;48.556;9.342;2023-11-18T08:28:39;6.10;99.90
21744;DHT22;11034;48.556;9.342;2023-11-18T08:31:08;6.20;99.90
21744;DHT22;11034;48.556;9.342;2023-11-18T08:33:36;6.20;99.90
21744;DHT22;11034;48.556;9.342;2023-11-18T08:36:05;6.20;99.90
21744;DHT22;11034;48.556;9.342;2023-11-18T08:38:36;6.30;99.90
21744;DHT22;11034;48.556;9.342;2023-11-18T08:41:05;6.30;99.90
21744;DHT22;11034;48.556;9.342;2023-11-18T08:43:35;6.30;99.90
21744;DHT22;11034;48.556;9.342;2023-11-18T08:46:04;6.30;99.90
21744;DHT22;11034;48.556;9.342;2023-11-18T08:48:34;6.30;99.90
21744;DHT22;11034;48.556;9.342;2023-11-18T08:51:03;6.40;99.90
21744;DHT22;11034;48.556;9.342;2023-11-18T08:53:36;6.40;99.90
21744;DHT22;11034;48.556;9.342;2023-11-18T08:56:08;6.50;99.90
21744;DHT22;11034;48.556;9.342;2023-11-18T08:58:42;6.60;99.90
21744;DHT22;11034;48.556;9.342;2023-11-18T09:01:12;6.60;99.90
21744;DHT22;11034;48.556;9.342;2023-11-18T09:03:43;6.90;99.90
21744;DHT22;11034;48.556;9.342;2023-11-18T09:06:16;7.00;99.90
21744;DHT22;11034;48.556;9.342;2023-11-18T09:08:56;7.10;99.90
21744;DHT22;11034;48.556;9.342;2023-11-18T09:11:25;7.20;99.90
21744;DHT22;11034;48.556;9.342;2023-11-18T09:13:59;7.30;99.90
21744;DHT22;11034;48.556;9.342;2023-11-18T09:16:31;7.30;99.90
21744;DHT22;11034;48.556;9.342;2023-11-18T09:19:05;7.30;99.90
21744;DHT22;11034;48.556;9.342;2023-11-18T09:21:33;7.30;99.90
21744;DHT22;11034;48.556;9.342;2023-11-18T09:24:05;7.30;99.90
21744;DHT22;11034;48.556;9.342;2023-11-18T09:26:38;7.20;99.90
21744;DHT22;11034;48.556;9.342;2023-11-18T09:29:06;7.10;99.90
21744;DHT22;11034;48.556;9.342;2023-11-18T09:31:36;7.10;99.90
21744;DHT22;11034;48.556;9.342;2023-11-18T09:34:04;7.20;99.90
21744;DHT22;11034;48.556;9.342;2023-11-18T09:36:33;7.30;99.90
21744;DHT22;11034;48.556;9.342;2023-11-18T09:39:04;7.20;99.90
21744;DHT22;11034;48.556;9.342;2023-11-18T09:41:34;7.10;99.90
21744;DHT22;11034;48.556;9.342;2023-11-18T09:44:06;7.30;99.90
21744;DHT22;11034;48.556;9.342;2023-11-18T09:46:36;7.40;99.90
21744;DHT22;11034;48.556;9.342;2023-11-18T09:49:21;7.60;99.90
21744;DHT22;11034;48.556;9.342;2023-11-18T09:51:57;7.60;99.90
21744;DHT22;11034;48.556;9.342;2023-11-18T09:54:30;7.70;99.90
21744;DHT22;11034;48.556;9.342;2023-11-18T09:57:07;7.80;99.90
21744;DHT22;11034;48.556;9.342;2023-11-18T09:59:42;8.10;99.90
21744;DHT22;11034;48.556;9.342;2023-11-18T10:02:14;8.30;99.90
21744;DHT22;11034;48.556;9.342;2023-11-18T10:04:46;8.30;99.90
21744;DHT22;11034;48.556;9.342;2023-11-18T10:07:18;8.30;99.90
21744;DHT22;11034;48.556;9.342;2023-11-18T10:09:48;8.20;99.90
21744;DHT22;11034;48.556;9.342;2023-11-18T10:12:23;8.20;99.90
21744;DHT22;11034;48.556;9.342;2023-11-18T10:14:53;8.00;99.90
21744;DHT22;11034;48.556;9.342;2023-11-18T10:17:23;8.00;99.90
21744;DHT22;11034;48.556;9.342;2023-11-18T10:19:53;8.00;99.90
21744;DHT22;11034;48.556;9.342;2023-11-18T10:22:24;8.10;99.90
21744;DHT22;11034;48.556;9.342;2023-11-18T10:24:56;8.30;99.90
21744;DHT22;11034;48.556;9.342;2023-11-18T10:27:50;8.60;99.90
21744;DHT22;11034;48.556;9.342;2023-11-18T12:19:31;8.70;99.90
21744;DHT22;11034;48.556;9.342;2023-11-18T12:24:40;8.70;99.90
21744;DHT22;11034;48.556;9.342;2023-11-18T12:27:09;8.60;99.90
21744;DHT22;11034;48.556;9.342;2023-11-18T12:29:44;8.60;99.90
21744;DHT22;11034;48.556;9.342;2023-11-18T12:35:20;8.20;99.90
21744;DHT22;11034;48.556;9.342;2023-11-18T12:38:13;8.30;99.90
21744;DHT22;11034;48.556;9.342;2023-11-18T12:51:33;8.10;99.90
21744;DHT22;11034;48.556;9.342;2023-11-18T12:54:04;8.10;99.90
21744;DHT22;11034;48.556;9.342;2023-11-18T12:56:34;8.10;99.90
21744;DHT22;11034;48.556;9.342;2023-11-18T12:59:03;7.90;99.90
21744;DHT22;11034;48.556;9.342;2023-11-18T13:01:33;7.90;99.90
21744;DHT22;11034;48.556;9.342;2023-11-18T13:04:05;7.90;99.90
21744;DHT22;11034;48.556;9.342;2023-11-18T13:06:33;7.80;99.90
21744;DHT22;11034;48.556;9.342;2023-11-18T13:09:01;7.80;99.90
21744;DHT22;11034;48.556;9.342;2023-11-18T13:11:32;7.70;99.90
21744;DHT22;11034;48.556;9.342;2023-11-18T13:14:00;7.60;99.90
21744;DHT22;11034;48.556;9.342;2023-11-18T13:16:30;7.60;99.90
21744;DHT22;11034;48.556;9.342;2023-11-18T13:18:58;7.40;99.90
21744;DHT22;11034;48.556;9.342;2023-11-18T13:21:27;7.20;99.90
21744;DHT22;11034;48.556;9.342;2023-11-18T13:23:57;7.20;99.90
21744;DHT22;11034;48.556;9.342;2023-11-18T13:26:26;7.30;99.90
21744;DHT22;11034;48.556;9.342;2023-11-18T13:28:54;7.30;99.90
21744;DHT22;11034;48.556;9.342;2023-11-18T13:31:22;7.30;99.90
21744;DHT22;11034;48.556;9.342;2023-11-18T13:33:51;7.30;99.90
21744;DHT22;11034;48.556;9.342;2023-11-18T13:36:20;7.30;99.90
21744;DHT22;11034;48.556;9.342;2023-11-18T13:38:50;7.20;99.90
21744;DHT22;11034;48.556;9.342;2023-11-18T13:41:30;7.10;99.90
21744;DHT22;11034;48.556;9.342;2023-11-18T13:43:59;7.10;99.90
21744;DHT22;11034;48.556;9.342;2023-11-18T13:46:27;7.10;99.90
21744;DHT22;11034;48.556;9.342;2023-11-18T13:48:57;7.00;99.90
21744;DHT22;11034;48.556;9.342;2023-11-18T13:51:26;6.90;99.90
21744;DHT22;11034;48.556;9.342;2023-11-18T13:53:55;6.90;99.90
21744;DHT22;11034;48.556;9.342;2023-11-18T13:56:24;6.90;99.90
21744;DHT22;11034;48.556;9.342;2023-11-18T13:58:54;6.90;99.90
21744;DHT22;11034;48.556;9.342;2023-11-18T14:01:22;6.90;99.90
21744;DHT22;11034;48.556;9.342;2023-11-18T14:03:51;6.90;99.90
21744;DHT22;11034;48.556;9.342;2023-11-18T14:06:22;7.00;99.90
21744;DHT22;11034;48.556;9.342;2023-11-18T14:08:50;7.00;99.90
21744;DHT22;11034;48.556;9.342;2023-11-18T14:11:20;7.00;99.90
21744;DHT22;11034;48.556;9.342;2023-11-18T14:13:48;6.90;99.90
21744;DHT22;11034;48.556;9.342;2023-11-18T14:16:18;6.90;99.90
21744;DHT22;11034;48.556;9.342;2023-11-18T14:18:48;6.90;99.90
21744;DHT22;11034;48.556;9.342;2023-11-18T14:21:16;6.90;99.90
21744;DHT22;11034;48.556;9.342;2023-11-18T14:23:44;6.90;99.90
21744;DHT22;11034;48.556;9.342;2023-11-18T14:26:12;7.00;99.90
21744;DHT22;11034;48.556;9.342;2023-11-18T14:28:42;7.00;99.90
21744;DHT22;11034;48.556;9.342;2023-11-18T14:31:10;6.90;99.90
21744;DHT22;11034;48.556;9.342;2023-11-18T14:33:39;6.80;99.90
21744;DHT22;11034;48.556;9.342;2023-11-18T14:36:07;6.70;99.90
21744;DHT22;11034;48.556;9.342;2023-11-18T14:38:36;6.80;99.90
21744;DHT22;11034;48.556;9.342;2023-11-18T14:41:05;6.80;99.90
21744;DHT22;11034;48.556;9.342;2023-11-18T14:43:35;6.70;99.90
21744;DHT22;11034;48.556;9.342;2023-11-18T14:46:06;6.70;99.90
21744;DHT22;11034;48.556;9.342;2023-11-18T14:48:35;6.70;99.90
21744;DHT22;11034;48.556;9.342;2023-11-18T14:51:04;6.60;99.90
21744;DHT22;11034;48.556;9.342;2023-11-18T14:53:35;6.70;99.90
21744;DHT22;11034;48.556;9.342;2023-11-18T14:56:15;6.70;99.90
21744;DHT22;11034;48.556;9.342;2023-11-18T14:58:48;6.60;99.90
21744;DHT22;11034;48.556;9.342;2023-11-18T15:01:19;6.60;99.90
21744;DHT22;11034;48.556;9.342;2023-11-18T15:03:51;6.60;99.90
21744;DHT22;11034;48.556;9.342;2023-11-18T15:06:25;6.70;99.90
21744;DHT22;11034;48.556;9.342;2023-11-18T15:08:53;6.80;99.90
21744;DHT22;11034;48.556;9.342;2023-11-18T15:11:24;6.90;99.90
21744;DHT22;11034;48.556;9.342;2023-11-18T15:13:53;6.80;99.90
21744;DHT22;11034;48.556;9.342;2023-11-18T15:16:23;6.70;99.90
21744;DHT22;11034;48.556;9.342;2023-11-18T15:18:51;6.60;99.90
21744;DHT22;11034;48.556;9.342;2023-11-18T15:21:20;6.50;99.90
21744;DHT22;11034;48.556;9.342;2023-11-18T15:23:48;6.50;99.90
21744;DHT22;11034;48.556;9.342;2023-11-18T15:26:17;6.50;99.90
21744;DHT22;11034;48.556;9.342;2023-11-18T15:28:45;6.50;99.90
21744;DHT22;11034;48.556;9.342;2023-11-18T15:31:13;6.40;99.90
21744;DHT22;11034;48.556;9.342;2023-11-18T15:33:42;6.40;99.90
21744;DHT22;11034;48.556;9.342;2023-11-18T15:36:12;6.50;99.90
21744;DHT22;11034;48.556;9.342;2023-11-18T15:38:41;6.50;99.90
21744;DHT22;11034;48.556;9.342;2023-11-18T15:41:10;6.50;99.90
21744;DHT22;11034;48.556;9.342;2023-11-18T15:43:38;6.50;99.90
21744;DHT22;11034;48.556;9.342;2023-11-18T15:46:09;6.50;99.90
21744;DHT22;11034;48.556;9.342;2023-11-18T15:48:38;6.50;99.90
21744;DHT22;11034;48.556;9.342;2023-11-18T15:51:07;6.50;99.90
21744;DHT22;11034;48.556;9.342;2023-11-18T15:53:35;6.60;99.90
21744;DHT22;11034;48.556;9.342;2023-11-18T15:56:04;6.50;99.90
21744;DHT22;11034;48.556;9.342;2023-11-18T15:58:32;6.50;99.90
21744;DHT22;11034;48.556;9.342;2023-11-18T16:01:02;6.60;99.90
21744;DHT22;11034;48.556;9.342;2023-11-18T16:03:31;6.50;99.90
21744;DHT22;11034;48.556;9.342;2023-11-18T16:05:59;6.50;99.90
21744;DHT22;11034;48.556;9.342;2023-11-18T16:08:29;6.50;99.90
21744;DHT22;11034;48.556;9.342;2023-11-18T16:10:57;6.50;99.90
21744;DHT22;11034;48.556;9.342;2023-11-18T16:13:27;6.60;99.90
21744;DHT22;11034;48.556;9.342;2023-11-18T16:15:55;6.50;99.90
21744;DHT22;11034;48.556;9.342;2023-11-18T16:18:23;6.50;99.90
21744;DHT22;11034;48.556;9.342;2023-11-18T16:20:51;6.50;99.90
21744;DHT22;11034;48.556;9.342;2023-11-18T16:23:20;6.50;99.90
21744;DHT22;11034;48.556;9.342;2023-11-18T16:25:50;6.50;99.90
21744;DHT22;11034;48.556;9.342;2023-11-18T16:28:19;6.50;99.90
21744;DHT22;11034;48.556;9.342;2023-11-18T16:30:47;6.50;99.90
21744;DHT22;11034;48.556;9.342;2023-11-18T16:33:17;6.50;99.90
21744;DHT22;11034;48.556;9.342;2023-11-18T16:35:46;6.40;99.90
21744;DHT22;11034;48.556;9.342;2023-11-18T16:38:14;6.40;99.90
21744;DHT22;11034;48.556;9.342;2023-11-18T16:40:42;6.40;99.90
21744;DHT22;11034;48.556;9.342;2023-11-18T16:43:11;6.40;99.90
21744;DHT22;11034;48.556;9.342;2023-11-18T16:45:40;6.40;99.90
21744;DHT22;11034;48.556;9.342;2023-11-18T16:48:08;6.40;99.90
21744;DHT22;11034;48.556;9.342;2023-11-18T16:50:36;6.40;99.90
21744;DHT22;11034;48.556;9.342;2023-11-18T16:53:04;6.30;99.90
21744;DHT22;11034;48.556;9.342;2023-11-18T16:55:33;6.30;99.90
21744;DHT22;11034;48.556;9.342;2023-11-18T16:58:02;6.30;99.90
21744;DHT22;11034;48.556;9.342;2023-11-18T17:00:31;6.30;99.90
21744;DHT22;11034;48.556;9.342;2023-11-18T17:03:00;6.30;99.90
21744;DHT22;11034;48.556;9.342;2023-11-18T17:05:29;6.30;99.90
21744;DHT22;11034;48.556;9.342;2023-11-18T17:07:59;6.30;99.90
21744;DHT22;11034;48.556;9.342;2023-11-18T17:10:28;6.30;99.90
21744;DHT22;11034;48.556;9.342;2023-11-18T17:12:57;6.30;99.90
21744;DHT22;11034;48.556;9.342;2023-11-18T17:15:27;6.40;99.90
21744;DHT22;11034;48.556;9.342;2023-11-18T17:17:57;6.30;99.90
21744;DHT22;11034;48.556;9.342;2023-11-18T17:20:30;6.30;99.90
21744;DHT22;11034;48.556;9.342;2023-11-18T17:22:58;6.30;99.90
21744;DHT22;11034;48.556;9.342;2023-11-18T17:25:27;6.30;99.90
21744;DHT22;11034;48.556;9.342;2023-11-18T17:27:55;6.30;99.90
21744;DHT22;11034;48.556;9.342;2023-11-18T17:30:24;6.30;99.90
21744;DHT22;11034;48.556;9.342;2023-11-18T17:32:57;6.40;99.90
21744;DHT22;11034;48.556;9.342;2023-11-18T17:35:25;6.40;99.90
21744;DHT22;11034;48.556;9.342;2023-11-18T17:37:54;6.40;99.90
21744;DHT22;11034;48.556;9.342;2023-11-18T17:40:22;6.40;99.90
21744;DHT22;11034;48.556;9.342;2023-11-18T17:42:50;6.40;99.90
21744;DHT22;11034;48.556;9.342;2023-11-18T17:45:20;6.40;99.90
21744;DHT22;11034;48.556;9.342;2023-11-18T17:47:51;6.50;99.90
21744;DHT22;11034;48.556;9.342;2023-11-18T17:50:21;6.50;99.90
21744;DHT22;11034;48.556;9.342;2023-11-18T17:52:49;6.60;99.90
21744;DHT22;11034;48.556;9.342;2023-11-18T17:55:18;6.60;99.90
21744;DHT22;11034;48.556;9.342;2023-11-18T17:57:47;6.60;99.90
21744;DHT22;11034;48.556;9.342;2023-11-18T18:00:15;6.60;99.90
21744;DHT22;11034;48.556;9.342;2023-11-18T18:02:50;6.60;99.90
21744;DHT22;11034;48.556;9.342;2023-11-18T18:05:21;6.70;99.90
21744;DHT22;11034;48.556;9.342;2023-11-18T18:07:50;6.60;99.90
21744;DHT22;11034;48.556;9.342;2023-11-18T18:10:20;6.60;99.90
21744;DHT22;11034;48.556;9.342;2023-11-18T18:12:49;6.60;99.90
21744;DHT22;11034;48.556;9.342;2023-11-18T18:15:17;6.50;99.90
21744;DHT22;11034;48.556;9.342;2023-11-18T18:17:46;6.50;99.90
21744;DHT22;11034;48.556;9.342;2023-11-18T18:20:15;6.60;99.90
21744;DHT22;11034;48.556;9.342;2023-11-18T18:22:48;6.60;99.90
21744;DHT22;11034;48.556;9.342;2023-11-18T18:25:16;6.60;99.90
21744;DHT22;11034;48.556;9.342;2023-11-18T18:27:45;6.50;99.90
21744;DHT22;11034;48.556;9.342;2023-11-18T18:30:17;6.50;99.90
21744;DHT22;11034;48.556;9.342;2023-11-18T18:32:45;6.50;99.90
21744;DHT22;11034;48.556;9.342;2023-11-18T18:35:16;6.40;99.90
21744;DHT22;11034;48.556;9.342;2023-11-18T18:37:47;6.40;99.90
21744;DHT22;11034;48.556;9.342;2023-11-18T18:40:16;6.40;99.90
21744;DHT22;11034;48.556;9.342;2023-11-18T18:42:46;6.50;99.90
21744;DHT22;11034;48.556;9.342;2023-11-18T18:45:14;6.50;99.90
21744;DHT22;11034;48.556;9.342;2023-11-18T18:47:42;6.40;99.90
21744;DHT22;11034;48.556;9.342;2023-11-18T18:50:10;6.40;99.90
21744;DHT22;11034;48.556;9.342;2023-11-18T18:52:39;6.40;99.90
21744;DHT22;11034;48.556;9.342;2023-11-18T18:55:09;6.40;99.90
21744;DHT22;11034;48.556;9.342;2023-11-18T18:57:39;6.40;99.90